< < Back
Terminal Aerodrome Forecast


Current Version              Previous Versions:   1  2  3  4  5  6  7  8  9  

Terminal Aerodrome Forecast

727
FTUS42 KCHS 231700
TAFCHS
TAF
KCHS 231726Z 2318/2418 32008KT P6SM SKC
     FM232300 01004KT P6SM SKC
     FM240800 04007KT P6SM SKC
     FM241400 09009KT P6SM SKC=

Latest METAR

460
SAUS80 KWBC 232200 RRA
MTRCHS
METAR KCHS 232156Z 34010G16KT 10SM CLR 29/08 A2980 RMK AO2 SLP092
T02890078


USA.gov is the U.S. government's official web portal to all federal, state and local government web resources and services.